Time;durP1;ratioP1;P1;durP2;ratioP2;P2;SDS_P1;SDS_P2;PMS_P1;PMS_P2;Temp;Humidity;BMP_temperature;BMP_pressure;BME280_temperature;BME280_humidity;BME280_pressure;Samples;Min_cycle;Max_cycle;Signal;HPM_P1;HPM_P2
2022/03/08 00:00:35;;;;;;;9.13;8.50;;;;;;;22.66;27.12;94748.88;6135779;28;104057;-55
2022/03/08 00:03:37;;;;;;;8.73;8.03;;;;;;;22.67;27.05;94755.78;6134932;28;103438;-55
2022/03/08 00:06:39;;;;;;;8.10;7.50;;;;;;;22.67;27.10;94761.09;6134671;28;103592;-55
2022/03/08 00:09:43;;;;;;;8.37;7.80;;;;;;;22.70;26.94;94750.66;6120692;28;102997;-55
2022/03/08 00:12:47;;;;;;;8.47;7.87;;;;;;;22.68;27.23;94750.16;6128549;28;103009;-56
2022/03/08 00:15:49;;;;;;;8.40;7.80;;;;;;;22.69;26.96;94753.63;6135998;28;103446;-55
2022/03/08 00:18:51;;;;;;;8.60;7.90;;;;;;;22.69;26.95;94758.94;6129655;28;104180;-55
2022/03/08 00:21:53;;;;;;;8.33;7.63;;;;;;;22.70;26.96;94771.16;6134347;28;104192;-55
2022/03/08 00:24:55;;;;;;;8.43;7.83;;;;;;;22.69;27.06;94761.59;6134291;28;104097;-56
2022/03/08 00:27:57;;;;;;;8.47;7.87;;;;;;;22.68;26.77;94760.03;6134822;28;103405;-55
2022/03/08 00:30:58;;;;;;;8.60;7.97;;;;;;;22.68;26.80;94757.38;6128534;28;106074;-55
2022/03/08 00:34:01;;;;;;;7.67;7.17;;;;;;;22.68;26.77;94750.16;6135032;28;102733;-55
2022/03/08 00:37:03;;;;;;;7.27;6.77;;;;;;;22.69;27.20;94754.41;6134997;28;104047;-55
2022/03/08 00:40:07;;;;;;;8.13;7.53;;;;;;;22.71;26.98;94759.41;6133432;28;103140;-55
2022/03/08 00:43:09;;;;;;;8.67;7.97;;;;;;;22.68;26.61;94752.84;6129475;28;104372;-55
2022/03/08 00:46:10;;;;;;;7.73;7.13;;;;;;;22.70;26.90;94752.53;6134439;28;103317;-56
2022/03/08 00:49:12;;;;;;;8.50;7.83;;;;;;;22.70;26.75;94744.53;6134738;28;104091;-55
2022/03/08 00:52:14;;;;;;;7.97;7.37;;;;;;;22.69;26.83;94749.06;6132896;28;102828;-56
2022/03/08 00:55:18;;;;;;;8.10;7.60;;;;;;;22.70;26.52;94740.00;6135311;28;103417;-56
2022/03/08 00:58:20;;;;;;;7.70;7.20;;;;;;;22.68;26.50;94742.19;6137385;28;103375;-56
2022/03/08 01:01:22;;;;;;;7.80;7.20;;;;;;;22.69;26.88;94742.97;6123265;28;103105;-56
2022/03/08 01:04:24;;;;;;;7.50;7.00;;;;;;;22.70;26.79;94747.19;6128587;28;103477;-55
2022/03/08 01:07:26;;;;;;;7.50;7.00;;;;;;;22.70;26.70;94750.66;6112750;28;103346;-56
2022/03/08 01:10:29;;;;;;;7.37;6.87;;;;;;;22.71;26.42;94743.44;6133530;28;104255;-55
2022/03/08 01:13:31;;;;;;;7.90;7.30;;;;;;;22.72;26.71;94742.34;6111620;28;104138;-55
2022/03/08 01:16:34;;;;;;;7.50;7.00;;;;;;;22.70;26.64;94734.66;6109142;28;104089;-56
2022/03/08 01:19:36;;;;;;;8.30;7.70;;;;;;;22.73;26.59;94735.91;6118244;28;104146;-55
2022/03/08 01:22:38;;;;;;;7.03;6.53;;;;;;;22.69;26.88;94733.09;6111606;28;104287;-56
2022/03/08 01:25:40;;;;;;;7.20;6.70;;;;;;;22.73;26.54;94727.94;6117833;28;103877;-56
2022/03/08 01:28:42;;;;;;;7.30;6.80;;;;;;;22.72;26.57;94727.16;6116022;28;103344;-55
2022/03/08 01:31:44;;;;;;;7.30;6.80;;;;;;;22.73;26.17;94725.25;6110216;28;104595;-54
2022/03/08 01:34:46;;;;;;;6.90;6.40;;;;;;;22.72;26.64;94732.47;6109640;28;103210;-54
2022/03/08 01:37:47;;;;;;;7.40;6.90;;;;;;;22.71;26.61;94724.78;6104727;28;103239;-55
2022/03/08 01:40:49;;;;;;;7.00;6.50;;;;;;;22.72;26.66;94727.16;6133297;28;103277;-55
2022/03/08 01:43:51;;;;;;;6.70;6.20;;;;;;;22.71;26.32;94725.56;6109943;28;103250;-55
2022/03/08 01:46:53;;;;;;;7.60;7.00;;;;;;;22.73;26.57;94727.94;6108810;28;104199;-55
2022/03/08 01:49:55;;;;;;;6.90;6.43;;;;;;;22.74;26.15;94726.84;6115205;28;104109;-55
2022/03/08 01:52:57;;;;;;;7.20;6.70;;;;;;;22.74;26.13;94729.50;6109573;28;104035;-55
2022/03/08 01:56:00;;;;;;;6.83;6.33;;;;;;;22.75;26.38;94721.19;6107916;28;103499;-55
2022/03/08 01:59:03;;;;;;;7.00;6.50;;;;;;;22.76;26.28;94727.31;6112422;28;104474;-54
2022/03/08 02:02:06;;;;;;;7.20;6.70;;;;;;;22.75;26.27;94721.19;6132566;28;103148;-55
2022/03/08 02:05:10;;;;;;;6.93;6.43;;;;;;;22.77;26.71;94723.53;6127683;28;104055;-55
2022/03/08 02:08:13;;;;;;;7.00;6.50;;;;;;;22.77;26.58;94726.22;6112856;28;103990;-55
2022/03/08 02:11:15;;;;;;;7.07;6.57;;;;;;;22.76;26.22;94730.75;6116274;28;103202;-55
2022/03/08 02:14:17;;;;;;;7.17;6.67;;;;;;;22.76;26.56;94729.97;6126442;28;103347;-54
2022/03/08 02:17:19;;;;;;;7.33;6.83;;;;;;;22.77;25.99;94734.19;6101621;28;103312;-55
2022/03/08 02:20:21;;;;;;;7.57;7.00;;;;;;;22.79;26.13;94732.00;6120898;28;103137;-56
2022/03/08 02:23:23;;;;;;;6.53;6.03;;;;;;;22.77;26.45;94727.00;6127634;28;104231;-56
2022/03/08 02:26:26;;;;;;;6.77;6.37;;;;;;;22.77;26.18;94740.31;6124200;28;104014;-55
2022/03/08 02:29:28;;;;;;;7.00;6.50;;;;;;;22.78;26.32;94731.22;6117703;28;103355;-56
2022/03/08 02:32:30;;;;;;;7.00;6.50;;;;;;;22.77;26.38;94734.97;6117883;28;102840;-56
2022/03/08 02:35:32;;;;;;;7.27;6.77;;;;;;;22.78;26.10;94735.75;6125165;28;103780;-55
2022/03/08 02:38:33;;;;;;;6.70;6.23;;;;;;;22.77;26.22;94736.84;6124771;28;103307;-56
2022/03/08 02:41:35;;;;;;;7.30;6.80;;;;;;;22.77;26.21;94739.53;6119648;28;103382;-55
2022/03/08 02:44:37;;;;;;;7.70;7.20;;;;;;;22.77;26.38;94740.31;6137963;28;103018;-55
2022/03/08 02:47:39;;;;;;;7.47;6.97;;;;;;;22.78;26.25;94738.44;6117077;28;104126;-55
2022/03/08 02:50:41;;;;;;;7.03;6.53;;;;;;;22.76;25.93;94738.75;6100765;28;103000;-55
2022/03/08 02:53:43;;;;;;;7.43;6.93;;;;;;;22.77;26.33;94748.28;6132149;28;103318;-55
2022/03/08 02:56:45;;;;;;;7.03;6.53;;;;;;;22.79;25.96;94755.97;6127032;28;103173;-55
2022/03/08 02:59:47;;;;;;;7.60;7.10;;;;;;;22.77;26.05;94752.84;6116696;28;103245;-55
2022/03/08 03:02:49;;;;;;;7.50;6.97;;;;;;;22.79;26.40;94758.63;6125893;28;104317;-55
2022/03/08 03:05:51;;;;;;;7.27;6.77;;;;;;;22.77;25.79;94756.28;6134341;28;103948;-55
2022/03/08 03:08:53;;;;;;;6.90;6.40;;;;;;;22.78;26.22;94763.19;6137968;28;104070;-55
2022/03/08 03:11:54;;;;;;;7.30;6.80;;;;;;;22.78;26.15;94762.41;6132182;28;102739;-55
2022/03/08 03:14:56;;;;;;;7.00;6.50;;;;;;;22.77;25.95;94761.63;6135045;28;102990;-55
2022/03/08 03:17:59;;;;;;;7.53;7.03;;;;;;;22.79;25.84;94769.28;6139429;28;103370;-55
2022/03/08 03:21:01;;;;;;;7.23;6.73;;;;;;;22.78;26.37;94763.19;6140190;28;103979;-55
2022/03/08 03:24:03;;;;;;;7.20;6.70;;;;;;;22.79;25.70;94766.63;6139242;28;104174;-56
2022/03/08 03:27:05;;;;;;;6.90;6.40;;;;;;;22.79;26.11;94767.41;6135440;28;104160;-55
2022/03/08 03:30:10;;;;;;;7.30;6.80;;;;;;;22.80;26.15;94776.19;6122665;28;104271;-55
2022/03/08 03:33:12;;;;;;;7.67;7.10;;;;;;;22.77;26.20;94766.94;6129776;28;103285;-55
2022/03/08 03:36:14;;;;;;;7.50;7.00;;;;;;;22.77;25.69;94766.16;6139025;28;104291;-55
2022/03/08 03:39:16;;;;;;;7.50;7.00;;;;;;;22.79;25.58;94763.97;6130175;28;103257;-55
2022/03/08 03:42:18;;;;;;;7.17;6.67;;;;;;;22.79;25.94;94766.63;6135883;28;104052;-55
2022/03/08 03:45:19;;;;;;;7.30;6.70;;;;;;;22.81;26.08;94767.09;6131559;28;104686;-56
2022/03/08 03:48:21;;;;;;;7.97;7.37;;;;;;;22.78;26.15;94762.41;6130026;28;103062;-55
2022/03/08 03:51:23;;;;;;;7.43;6.83;;;;;;;22.79;25.70;94769.28;6134359;28;104158;-56
2022/03/08 03:54:25;;;;;;;8.40;7.70;;;;;;;22.78;26.26;94771.16;6134393;28;103067;-55
2022/03/08 03:57:27;;;;;;;8.13;7.53;;;;;;;22.77;25.84;94764.28;6131939;28;103168;-55
2022/03/08 04:00:29;;;;;;;7.57;7.03;;;;;;;22.78;26.04;94773.06;6122643;28;103509;-55
2022/03/08 04:03:31;;;;;;;8.20;7.60;;;;;;;22.77;26.13;94779.47;6135497;28;104019;-56
2022/03/08 04:06:33;;;;;;;8.03;7.43;;;;;;;22.80;25.93;94776.19;6132896;28;103014;-56
2022/03/08 04:09:35;;;;;;;7.90;7.40;;;;;;;22.78;25.98;94768.50;6128708;28;104128;-55
2022/03/08 04:12:37;;;;;;;8.50;7.90;;;;;;;22.78;26.10;94773.84;6128487;28;104970;-55
2022/03/08 04:15:38;;;;;;;8.33;7.73;;;;;;;22.80;26.08;94771.63;6124354;28;103305;-55
2022/03/08 04:18:40;;;;;;;8.30;7.70;;;;;;;22.75;26.44;94774.47;6116933;28;103019;-58
2022/03/08 04:21:42;;;;;;;8.97;8.23;;;;;;;22.73;26.42;94773.19;6109447;28;103051;-57
2022/03/08 04:24:44;;;;;;;8.80;8.10;;;;;;;22.76;26.20;94770.69;6111885;28;104000;-56
2022/03/08 04:27:46;;;;;;;9.63;8.93;;;;;;;22.79;27.06;94770.06;6110569;28;103114;-56
2022/03/08 04:30:47;;;;;;;10.30;9.47;;;;;;;22.82;29.31;94774.03;6111669;28;103969;-57
2022/03/08 04:33:49;;;;;;;12.30;11.00;;;;;;;22.82;32.53;94768.69;6105737;28;103025;-57
2022/03/08 04:36:51;;;;;;;11.67;10.57;;;;;;;22.85;32.40;94778.75;6110470;28;103227;-57
2022/03/08 04:39:53;;;;;;;11.23;9.77;;;;;;;22.82;30.10;94766.03;6111574;28;103020;-55
2022/03/08 04:42:55;;;;;;;9.60;8.90;;;;;;;22.84;30.10;94763.84;6119699;28;104728;-54
2022/03/08 04:45:56;;;;;;;10.53;9.63;;;;;;;22.81;29.71;94767.88;6126628;28;105235;-54
2022/03/08 04:48:59;;;;;;;11.00;10.10;;;;;;;22.78;30.21;94771.16;6134923;28;104020;-56
2022/03/08 04:52:01;;;;;;;20.20;12.10;;;;;;;22.78;30.64;94771.16;6124971;28;103104;-55
2022/03/08 04:55:03;;;;;;;12.03;11.03;;;;;;;22.84;30.51;94774.50;6105654;28;105119;-55
2022/03/08 04:58:05;;;;;;;11.13;10.23;;;;;;;22.85;30.21;94765.44;6112731;28;102759;-55
2022/03/08 05:01:07;;;;;;;11.53;10.10;;;;;;;22.91;30.39;94766.84;6107072;28;104010;-56
2022/03/08 05:04:09;;;;;;;12.10;11.17;;;;;;;22.92;31.28;94772.97;6096530;28;103609;-55
2022/03/08 05:07:11;;;;;;;10.80;10.00;;;;;;;22.98;30.78;94769.03;6123250;28;103095;-56
2022/03/08 05:10:13;;;;;;;11.43;10.53;;;;;;;23.01;30.74;94769.22;6130367;28;104363;-56
2022/03/08 05:13:15;;;;;;;12.07;11.07;;;;;;;22.99;30.93;94768.72;6130849;28;103274;-56
2022/03/08 05:16:17;;;;;;;12.80;10.67;;;;;;;22.97;31.59;94772.81;6128041;28;103169;-55
2022/03/08 05:19:19;;;;;;;11.40;10.30;;;;;;;22.90;31.01;94767.16;6133982;28;102915;-54
2022/03/08 05:22:22;;;;;;;12.07;11.00;;;;;;;22.88;30.77;94772.81;6134213;28;104639;-55
2022/03/08 05:25:23;;;;;;;10.50;9.70;;;;;;;22.84;30.32;94769.16;6132357;28;102981;-55
2022/03/08 05:28:25;;;;;;;11.10;10.20;;;;;;;22.84;30.30;94769.16;6126640;28;104063;-55
2022/03/08 05:31:27;;;;;;;11.67;10.57;;;;;;;22.85;30.30;94783.31;6131738;28;103268;-55
2022/03/08 05:34:34;;;;;;;10.60;9.77;;;;;;;22.83;29.70;94777.47;6131054;28;103865;-55
2022/03/08 05:37:36;;;;;;;10.97;10.07;;;;;;;22.83;29.59;94775.59;6131559;28;103024;-55
2022/03/08 05:40:39;;;;;;;10.27;9.47;;;;;;;22.85;29.61;94769.97;6126808;28;103276;-55
2022/03/08 05:43:41;;;;;;;10.60;9.80;;;;;;;22.84;29.30;94777.16;6133927;28;104013;-55
2022/03/08 05:46:44;;;;;;;10.03;9.23;;;;;;;22.86;29.06;94779.53;6134124;28;102833;-55
2022/03/08 05:49:45;;;;;;;10.30;9.50;;;;;;;22.86;29.39;94775.00;6127756;28;103439;-55
2022/03/08 05:52:47;;;;;;;10.83;9.70;;;;;;;22.89;29.03;94781.56;6116725;28;104302;-55
2022/03/08 05:55:49;;;;;;;10.13;9.30;;;;;;;22.88;28.81;94783.47;6133940;28;103766;-55
2022/03/08 05:58:51;;;;;;;10.00;9.20;;;;;;;22.91;28.96;94779.38;6133577;28;103391;-55
2022/03/08 06:01:55;;;;;;;10.43;9.53;;;;;;;22.93;28.83;94783.31;6127663;28;103147;-55
2022/03/08 06:05:03;;;;;;;9.37;8.67;;;;;;;22.93;28.52;94787.84;6133630;28;104070;-54
2022/03/08 06:08:05;;;;;;;10.20;9.40;;;;;;;22.94;28.65;94782.19;6133098;28;103124;-54
2022/03/08 06:11:07;;;;;;;9.73;8.93;;;;;;;22.96;28.18;94789.88;6108659;28;103990;-54
2022/03/08 06:14:09;;;;;;;9.57;8.87;;;;;;;22.97;27.99;94788.78;6109083;28;103445;-55
2022/03/08 06:17:11;;;;;;;9.83;9.10;;;;;;;22.97;28.45;94797.56;6110120;28;104096;-55
2022/03/08 06:20:13;;;;;;;10.53;9.73;;;;;;;22.99;28.50;94798.03;6109078;28;104112;-54
2022/03/08 06:23:15;;;;;;;10.30;9.30;;;;;;;22.98;28.18;94795.69;6103750;28;103290;-55
2022/03/08 06:26:17;;;;;;;9.90;9.10;;;;;;;22.98;27.77;94795.69;6108459;28;103142;-55
2022/03/08 06:29:19;;;;;;;9.50;8.80;;;;;;;22.98;27.72;94799.13;6109221;28;103266;-55
2022/03/08 06:32:21;;;;;;;10.93;10.03;;;;;;;22.97;27.90;94797.56;6109209;28;104113;-55
2022/03/08 06:35:23;;;;;;;10.50;9.70;;;;;;;22.98;27.73;94799.13;6104031;28;104309;-55
2022/03/08 06:38:25;;;;;;;9.90;9.20;;;;;;;22.98;27.57;94801.78;6108956;28;103793;-55
2022/03/08 06:41:27;;;;;;;10.60;9.80;;;;;;;23.01;27.43;94808.38;6108416;28;103464;-55
2022/03/08 06:44:29;;;;;;;9.90;9.20;;;;;;;22.99;27.63;94800.69;6103606;28;103173;-55
2022/03/08 06:47:30;;;;;;;10.07;9.27;;;;;;;23.01;27.50;94805.72;6109636;28;104578;-56
2022/03/08 06:50:32;;;;;;;10.23;9.40;;;;;;;23.00;27.34;94802.25;6108836;28;104249;-55
2022/03/08 06:53:34;;;;;;;10.27;9.47;;;;;;;23.01;27.63;94803.06;6109491;28;103339;-55
2022/03/08 06:56:36;;;;;;;10.07;9.30;;;;;;;23.03;27.32;94804.34;6102681;28;103989;-55
2022/03/08 06:59:38;;;;;;;10.43;9.53;;;;;;;23.02;27.58;94804.66;6108873;28;103129;-55
2022/03/08 07:02:40;;;;;;;10.13;9.23;;;;;;;23.03;27.06;94806.22;6108886;28;102999;-55
2022/03/08 07:05:42;;;;;;;10.40;9.60;;;;;;;23.03;27.32;94811.53;6130748;28;104463;-55
2022/03/08 07:08:43;;;;;;;10.17;9.37;;;;;;;23.03;27.28;94808.88;6126955;28;103011;-55
2022/03/08 07:11:45;;;;;;;10.07;9.30;;;;;;;23.02;27.15;94810.75;6133343;28;104256;-55
2022/03/08 07:14:47;;;;;;;9.63;8.93;;;;;;;23.03;27.39;94807.00;6136540;28;103184;-56
2022/03/08 07:17:49;;;;;;;11.93;10.93;;;;;;;23.09;27.02;94802.28;6130763;28;103027;-57
2022/03/08 07:20:51;;;;;;;12.77;11.77;;;;;;;23.11;27.34;94805.44;6136807;28;104273;-58
2022/03/08 07:23:55;;;;;;;14.80;13.60;;;;;;;23.11;27.23;94800.88;6136966;28;104638;-58
2022/03/08 07:26:57;;;;;;;18.60;17.10;;;;;;;23.10;27.87;94801.97;6136036;28;104287;-57
2022/03/08 07:29:59;;;;;;;18.70;17.30;;;;;;;23.11;27.24;94808.88;6131252;28;103027;-58
2022/03/08 07:33:01;;;;;;;22.60;20.60;;;;;;;23.10;27.47;94809.97;6118471;28;103035;-58
2022/03/08 07:36:09;;;;;;;21.67;19.97;;;;;;;23.11;27.92;94808.88;6136518;28;103070;-58
2022/03/08 07:39:11;;;;;;;22.03;20.17;;;;;;;23.15;27.33;94800.25;6130987;28;103063;-58
2022/03/08 07:42:13;;;;;;;21.60;19.80;;;;;;;23.15;27.85;94805.59;6135618;28;103446;-59
2022/03/08 07:45:15;;;;;;;23.13;21.23;;;;;;;23.14;27.80;94798.69;6136542;28;103537;-58
2022/03/08 07:48:18;;;;;;;24.53;22.53;;;;;;;23.16;27.93;94794.63;6118522;28;103157;-58
2022/03/08 07:51:20;;;;;;;25.63;23.47;;;;;;;23.15;27.98;94803.69;6130615;28;103238;-58
2022/03/08 07:54:22;;;;;;;24.70;22.70;;;;;;;23.17;27.54;94806.84;6136380;28;103217;-59
2022/03/08 07:57:23;;;;;;;24.73;22.73;;;;;;;23.10;28.14;94799.31;6135674;28;103040;-56
2022/03/08 08:00:46;;;;;;;25.77;23.47;;;;;;;23.07;27.80;94794.63;6136814;28;106243;-55
2022/03/08 08:03:48;;;;;;;22.73;20.93;;;;;;;23.06;27.85;94801.03;6129595;28;103076;-55
2022/03/08 08:06:53;;;;;;;22.77;20.97;;;;;;;23.05;27.86;94804.81;6136186;28;104215;-55
2022/03/08 08:09:55;;;;;;;22.13;20.37;;;;;;;23.04;27.87;94803.25;6135690;28;104055;-55
2022/03/08 08:12:57;;;;;;;21.43;19.73;;;;;;;23.03;27.69;94796.34;6130675;28;104399;-55
2022/03/08 08:15:59;;;;;;;21.67;19.77;;;;;;;23.02;27.41;94800.09;6136409;28;104149;-55
2022/03/08 08:19:02;;;;;;;20.90;19.20;;;;;;;23.01;27.63;94803.88;6117864;28;103325;-55
2022/03/08 08:22:04;;;;;;;24.30;22.20;;;;;;;22.98;27.46;94804.47;6135475;28;102964;-56
2022/03/08 08:25:07;;;;;;;21.00;19.23;;;;;;;23.00;27.73;94806.81;6128730;28;103265;-56
2022/03/08 08:28:09;;;;;;;20.70;19.10;;;;;;;22.99;27.60;94810.56;6134983;28;103197;-56
2022/03/08 08:31:11;;;;;;;21.40;19.70;;;;;;;22.97;27.70;94810.88;6135125;28;103561;-56
2022/03/08 08:34:13;;;;;;;20.37;18.67;;;;;;;22.97;27.26;94813.56;6130583;28;104102;-55
2022/03/08 08:37:14;;;;;;;21.73;19.93;;;;;;;22.97;27.35;94816.22;6135104;28;104060;-56
2022/03/08 08:40:16;;;;;;;21.07;19.37;;;;;;;22.99;27.12;94816.69;6135390;28;103064;-55
2022/03/08 08:43:19;;;;;;;20.27;18.63;;;;;;;22.99;27.20;94821.22;6135261;28;103471;-56
2022/03/08 08:46:21;;;;;;;19.10;17.60;;;;;;;22.98;27.27;94811.66;6130058;28;104078;-56
2022/03/08 08:49:25;;;;;;;20.10;18.50;;;;;;;22.96;27.48;94811.97;6135560;28;103245;-55
2022/03/08 08:52:26;;;;;;;20.27;18.47;;;;;;;22.97;27.53;94813.56;6135129;28;104009;-55
2022/03/08 08:55:28;;;;;;;20.10;18.50;;;;;;;22.99;27.22;94814.03;6134603;28;103265;-56
2022/03/08 08:58:30;;;;;;;22.17;20.47;;;;;;;22.98;27.44;94815.13;6129668;28;103465;-55
2022/03/08 09:01:32;;;;;;;25.47;23.37;;;;;;;22.88;27.66;94817.31;6134705;28;104413;-56
2022/03/08 09:04:35;;;;;;;24.23;22.20;;;;;;;22.80;27.60;94813.47;6134444;28;104017;-56
2022/03/08 09:07:37;;;;;;;24.67;22.67;;;;;;;22.77;27.57;94814.09;6129813;28;103894;-57
2022/03/08 09:10:39;;;;;;;25.97;23.77;;;;;;;22.75;27.43;94813.63;6134553;28;105287;-57
2022/03/08 09:13:43;;;;;;;27.43;25.07;;;;;;;22.73;27.50;94810.50;6134780;28;103404;-57
2022/03/08 09:16:44;;;;;;;26.07;23.97;;;;;;;22.73;27.64;94813.16;6134590;28;103805;-57
2022/03/08 09:19:46;;;;;;;29.73;27.20;;;;;;;22.71;27.85;94815.34;6129908;28;104237;-57
2022/03/08 09:22:49;;;;;;;26.37;24.20;;;;;;;22.70;27.95;94814.56;6134561;28;104020;-57
2022/03/08 09:25:50;;;;;;;24.33;22.33;;;;;;;22.72;27.83;94817.69;6134551;28;104035;-57
2022/03/08 09:28:52;;;;;;;24.77;22.67;;;;;;;22.71;27.85;94810.81;6133385;28;103156;-56
2022/03/08 09:31:54;;;;;;;24.13;22.03;;;;;;;22.78;27.48;94810.34;6128243;28;104272;-55
2022/03/08 09:34:56;;;;;;;23.87;22.00;;;;;;;22.88;27.51;94810.09;6133982;28;104052;-56
2022/03/08 09:37:58;;;;;;;22.30;20.50;;;;;;;22.97;27.17;94815.44;6132880;28;103096;-56
2022/03/08 09:41:02;;;;;;;22.73;20.93;;;;;;;23.00;27.21;94818.25;6129150;28;104025;-56
2022/03/08 09:44:05;;;;;;;23.50;21.60;;;;;;;23.02;26.95;94818.75;6134074;28;103127;-56
2022/03/08 09:47:07;;;;;;;22.20;20.40;;;;;;;23.03;26.77;94811.53;6134382;28;103596;-56
2022/03/08 09:50:11;;;;;;;21.07;19.37;;;;;;;23.05;26.78;94828.00;6134354;28;102876;-55
2022/03/08 09:53:18;;;;;;;21.10;19.40;;;;;;;23.04;27.13;94829.88;6127688;28;103045;-55
2022/03/08 09:56:20;;;;;;;20.53;18.93;;;;;;;23.04;27.11;94829.88;6133791;28;102777;-57
2022/03/08 09:59:22;;;;;;;20.83;19.03;;;;;;;23.04;26.93;94821.09;6133633;28;103635;-54
2022/03/08 10:02:39;;;;;;;18.80;17.40;;;;;;;23.04;27.12;94824.56;6127999;28;103061;-55
2022/03/08 10:05:44;;;;;;;18.90;17.40;;;;;;;23.04;26.90;94821.88;6132899;28;104000;-56
2022/03/08 10:08:46;;;;;;;19.10;17.67;;;;;;;23.04;26.63;94819.22;6133615;28;104164;-55
2022/03/08 10:11:55;;;;;;;19.27;17.77;;;;;;;23.02;26.62;94810.75;6134230;28;104079;-55
2022/03/08 10:15:16;;;;;;;18.07;16.67;;;;;;;23.05;26.94;94820.78;6127588;28;104161;-55
2022/03/08 10:18:31;;;;;;;18.40;17.00;;;;;;;23.04;27.07;94826.44;6133918;28;104214;-54
2022/03/08 10:21:34;;;;;;;17.83;16.47;;;;;;;23.04;26.79;94832.53;6134074;28;104164;-55
2022/03/08 10:24:36;;;;;;;19.20;17.60;;;;;;;23.04;26.42;94827.22;6127855;28;103249;-55
2022/03/08 10:27:56;;;;;;;18.10;16.70;;;;;;;23.04;26.52;94826.44;6133680;28;104196;-55
2022/03/08 10:30:57;;;;;;;16.53;15.23;;;;;;;23.03;26.49;94828.31;6132169;28;104037;-55
2022/03/08 10:34:06;;;;;;;17.57;16.17;;;;;;;23.04;26.87;94829.09;6133357;28;103244;-55
2022/03/08 10:37:18;;;;;;;17.60;16.20;;;;;;;23.02;26.71;94824.09;6127795;28;103907;-54
2022/03/08 10:40:34;;;;;;;18.17;16.67;;;;;;;23.02;26.33;94821.41;6133262;28;103159;-54
2022/03/08 10:43:48;;;;;;;17.40;16.00;;;;;;;23.02;26.79;94815.31;6133011;28;103039;-56
2022/03/08 10:47:04;;;;;;;17.13;15.73;;;;;;;23.03;26.47;94816.88;6130150;28;103977;-54
2022/03/08 10:50:07;;;;;;;16.87;15.50;;;;;;;23.03;26.71;94822.19;6137329;28;103064;-55
2022/03/08 10:53:11;;;;;;;16.73;15.37;;;;;;;23.02;26.61;94820.63;6136854;28;102984;-55
2022/03/08 10:56:21;;;;;;;16.50;15.20;;;;;;;23.02;26.26;94824.09;6137580;28;104491;-55
2022/03/08 10:59:23;;;;;;;15.33;14.07;;;;;;;23.07;26.44;94829.25;6132036;28;105103;-54
2022/03/08 11:02:25;;;;;;;16.57;15.27;;;;;;;23.16;26.62;94829.25;6136416;28;104472;-54
2022/03/08 11:05:30;;;;;;;15.50;14.30;;;;;;;23.21;26.16;94834.47;6136934;28;103279;-54
2022/03/08 11:08:33;;;;;;;14.93;13.73;;;;;;;23.29;26.22;94832.91;6131778;28;103049;-55
2022/03/08 11:11:36;;;;;;;14.97;13.80;;;;;;;23.26;26.21;94830.84;6136716;28;104382;-54
2022/03/08 11:14:38;;;;;;;15.30;14.13;;;;;;;23.27;26.49;94827.09;6136951;28;104067;-55
2022/03/08 11:17:43;;;;;;;15.53;14.23;;;;;;;23.32;26.71;94826.94;6137389;28;104048;-54
2022/03/08 11:20:47;;;;;;;15.50;14.40;;;;;;;23.28;26.46;94826.00;6131301;28;104378;-54
2022/03/08 11:23:51;;;;;;;14.93;13.80;;;;;;;23.29;26.77;94823.00;6136756;28;104089;-55
2022/03/08 11:26:54;;;;;;;15.00;13.80;;;;;;;23.19;26.97;94819.88;6137256;28;105572;-58
2022/03/08 11:29:56;;;;;;;16.47;15.17;;;;;;;23.07;26.93;94815.16;6136561;28;103218;-58
2022/03/08 11:33:38;;;;;;;16.53;15.23;;;;;;;23.03;26.70;94816.88;6130440;28;103331;-55
2022/03/08 11:37:00;;;;;;;17.03;15.73;;;;;;;23.03;26.72;94817.66;6129126;28;103092;-55
2022/03/08 11:40:10;;;;;;;15.87;14.67;;;;;;;23.03;26.63;94814.22;6137423;28;104358;-55
2022/03/08 11:43:12;;;;;;;16.30;15.10;;;;;;;23.03;26.93;94812.31;6131390;28;103277;-55
2022/03/08 11:46:18;;;;;;;16.27;14.97;;;;;;;23.03;26.60;94808.88;6136741;28;104085;-54
2022/03/08 11:49:41;;;;;;;15.70;14.50;;;;;;;23.02;26.61;94804.66;6137327;28;104178;-55
2022/03/08 11:52:43;;;;;;;15.17;13.97;;;;;;;23.02;26.55;94807.31;6131265;28;103450;-55
2022/03/08 11:55:45;;;;;;;15.50;14.30;;;;;;;23.03;26.66;94811.53;6136135;28;103382;-55
2022/03/08 11:58:49;;;;;;;14.23;13.13;;;;;;;23.02;26.53;94810.75;6135966;28;104107;-55
2022/03/08 12:01:54;;;;;;;15.00;13.87;;;;;;;23.01;26.33;94816.38;6136704;28;103924;-57
2022/03/08 12:04:56;;;;;;;14.63;13.43;;;;;;;23.00;26.48;94812.94;6134481;28;104156;-55
2022/03/08 12:08:27;;;;;;;15.30;14.10;;;;;;;23.00;26.31;94812.94;6136312;28;103404;-55
2022/03/08 12:11:31;;;;;;;14.80;13.57;;;;;;;23.02;26.58;94815.31;6136259;28;104165;-55
2022/03/08 12:15:04;;;;;;;14.00;13.00;;;;;;;23.01;26.53;94813.72;6130532;28;103170;-55
2022/03/08 12:18:16;;;;;;;13.53;12.53;;;;;;;23.02;26.19;94804.66;6135899;28;103332;-55
2022/03/08 12:21:24;;;;;;;15.00;13.80;;;;;;;23.02;26.24;94810.75;6135911;28;102968;-55
2022/03/08 12:24:27;;;;;;;14.40;13.33;;;;;;;23.01;25.97;94806.53;6136264;28;103064;-55
2022/03/08 12:27:50;;;;;;;14.20;13.03;;;;;;;23.01;26.07;94797.72;6130208;28;103440;-55
2022/03/08 12:31:06;;;;;;;14.40;13.40;;;;;;;23.01;26.35;94801.19;6136427;28;102820;-55
2022/03/08 12:34:47;;;;;;;14.63;13.37;;;;;;;23.01;26.02;94806.53;6136156;28;104202;-54
2022/03/08 12:38:07;;;;;;;14.10;13.10;;;;;;;23.01;26.31;94803.06;6129442;28;104264;-55
2022/03/08 12:41:08;;;;;;;13.97;12.83;;;;;;;22.94;26.12;94786.75;6135917;28;104182;-55
2022/03/08 12:44:10;;;;;;;14.00;12.90;;;;;;;23.01;25.93;94798.53;6135148;28;103027;-56
2022/03/08 12:47:13;;;;;;;14.07;12.97;;;;;;;23.01;25.99;94798.53;6135716;28;103602;-56
2022/03/08 12:50:18;;;;;;;14.57;13.37;;;;;;;23.00;25.85;94802.25;6130709;28;103101;-55
2022/03/08 12:53:28;;;;;;;12.80;11.80;;;;;;;23.02;26.09;94800.09;6135731;28;103372;-55
2022/03/08 12:56:31;;;;;;;14.77;13.60;;;;;;;23.03;25.79;94800.88;6136582;28;104082;-55
2022/03/08 12:59:45;;;;;;;13.87;12.87;;;;;;;23.02;26.36;94800.09;6131112;28;104027;-56
2022/03/08 13:02:48;;;;;;;13.47;12.47;;;;;;;23.02;25.84;94805.44;6134667;28;103680;-55
2022/03/08 13:05:55;;;;;;;14.17;13.00;;;;;;;23.03;25.95;94799.00;6134776;28;103583;-55
2022/03/08 13:09:04;;;;;;;14.27;13.07;;;;;;;23.04;25.83;94797.91;6133842;28;103049;-55
2022/03/08 13:12:30;;;;;;;13.93;12.83;;;;;;;23.06;25.97;94801.03;6130355;28;104979;-55
2022/03/08 13:15:32;;;;;;;12.80;11.83;;;;;;;23.05;26.25;94804.81;6134374;28;103118;-55
2022/03/08 13:18:36;;;;;;;13.77;12.70;;;;;;;23.07;26.15;94809.81;6135509;28;104257;-54
2022/03/08 13:21:39;;;;;;;13.13;12.10;;;;;;;23.05;25.86;94799.47;6111834;28;103092;-54
2022/03/08 13:24:40;;;;;;;13.27;12.07;;;;;;;23.05;26.26;94804.81;6134350;28;103015;-55
2022/03/08 13:27:49;;;;;;;13.17;12.17;;;;;;;23.08;26.25;94798.84;6116585;28;103220;-55
2022/03/08 13:31:02;;;;;;;12.67;11.67;;;;;;;23.08;25.62;94804.19;6134254;28;104442;-54
2022/03/08 13:34:11;;;;;;;13.80;12.70;;;;;;;23.09;25.61;94800.41;6129741;28;104060;-55
2022/03/08 13:37:15;;;;;;;12.63;11.73;;;;;;;23.09;25.78;94800.41;6133670;28;102953;-55
2022/03/08 13:40:25;;;;;;;12.77;11.77;;;;;;;23.10;25.87;94801.19;6133679;28;103266;-55
2022/03/08 13:43:29;;;;;;;12.60;11.60;;;;;;;23.08;25.95;94806.84;6110555;28;103014;-58
2022/03/08 13:46:47;;;;;;;12.73;11.80;;;;;;;23.10;25.62;94801.97;6134268;28;103319;-57
2022/03/08 13:49:49;;;;;;;13.47;12.47;;;;;;;23.10;25.61;94801.97;6134881;28;104354;-55
2022/03/08 13:52:56;;;;;;;12.87;11.90;;;;;;;23.09;25.84;94804.97;6133506;28;102774;-55
2022/03/08 13:55:58;;;;;;;12.43;11.43;;;;;;;23.10;25.86;94806.53;6128930;28;103848;-55
2022/03/08 13:59:00;;;;;;;13.60;12.50;;;;;;;23.09;26.23;94799.63;6133800;28;104076;-57
2022/03/08 14:02:07;;;;;;;12.80;11.70;;;;;;;23.09;25.83;94795.09;6134369;28;103160;-55
2022/03/08 14:05:09;;;;;;;12.67;11.60;;;;;;;23.08;25.84;94798.84;6127544;28;103239;-55